sensor_id;sensor_type;location;lat;lon;timestamp;pressure;altitude;pressure_sealevel;temperature;humidity
77793;BME280;66983;51.438;5.438;2023-04-01T00:00:24;99089.88;;;9.96;87.93
77793;BME280;66983;51.438;5.438;2023-04-01T00:02:50;99090.06;;;9.93;87.79
77793;BME280;66983;51.438;5.438;2023-04-01T00:05:15;99097.94;;;9.94;87.87
77793;BME280;66983;51.438;5.438;2023-04-01T00:07:42;99095.28;;;9.94;88.15
77793;BME280;66983;51.438;5.438;2023-04-01T00:10:11;99093.47;;;9.95;87.59
77793;BME280;66983;51.438;5.438;2023-04-01T00:12:38;99094.34;;;9.95;88.20
77793;BME280;66983;51.438;5.438;2023-04-01T00:15:07;99088.06;;;9.96;87.38
77793;BME280;66983;51.438;5.438;2023-04-01T00:17:34;99096.03;;;9.96;87.87
77793;BME280;66983;51.438;5.438;2023-04-01T00:20:00;99095.19;;;9.96;88.57
77793;BME280;66983;51.438;5.438;2023-04-01T00:22:26;99093.47;;;9.95;88.33
77793;BME280;66983;51.438;5.438;2023-04-01T00:24:52;99102.41;;;9.94;87.10
77793;BME280;66983;51.438;5.438;2023-04-01T00:27:18;99090.06;;;9.93;87.40
77793;BME280;66983;51.438;5.438;2023-04-01T00:29:46;99091.00;;;9.92;88.21
77793;BME280;66983;51.438;5.438;2023-04-01T00:32:11;99098.81;;;9.95;88.69
77793;BME280;66983;51.438;5.438;2023-04-01T00:34:37;99102.41;;;9.94;88.37
77793;BME280;66983;51.438;5.438;2023-04-01T00:37:03;99101.66;;;9.92;87.88
77793;BME280;66983;51.438;5.438;2023-04-01T00:39:30;99102.59;;;9.91;87.85
77793;BME280;66983;51.438;5.438;2023-04-01T00:41:57;99118.56;;;9.91;88.67
77793;BME280;66983;51.438;5.438;2023-04-01T00:44:25;99117.72;;;9.90;88.23
77793;BME280;66983;51.438;5.438;2023-04-01T00:46:51;99117.81;;;9.88;88.04
77793;BME280;66983;51.438;5.438;2023-04-01T00:49:25;99123.03;;;9.90;88.00
77793;BME280;66983;51.438;5.438;2023-04-01T00:51:55;99120.47;;;9.88;88.98
77793;BME280;66983;51.438;5.438;2023-04-01T00:54:24;99117.94;;;9.87;87.97
77793;BME280;66983;51.438;5.438;2023-04-01T00:57:15;99123.34;;;9.85;88.16
77793;BME280;66983;51.438;5.438;2023-04-01T00:59:47;99127.72;;;9.86;89.22
77793;BME280;66983;51.438;5.438;2023-04-01T01:02:16;99133.06;;;9.86;88.68
77793;BME280;66983;51.438;5.438;2023-04-01T01:04:41;99131.34;;;9.85;89.16
77793;BME280;66983;51.438;5.438;2023-04-01T01:15:26;99145.78;;;9.81;88.75
77793;BME280;66983;51.438;5.438;2023-04-01T01:17:58;99140.47;;;9.81;88.94
77793;BME280;66983;51.438;5.438;2023-04-01T01:32:16;99139.69;;;9.79;89.23
77793;BME280;66983;51.438;5.438;2023-04-01T01:37:25;99141.22;;;9.83;90.02
77793;BME280;66983;51.438;5.438;2023-04-01T01:40:00;99141.13;;;9.85;89.72
77793;BME280;66983;51.438;5.438;2023-04-01T01:42:31;99141.88;;;9.87;89.39
77793;BME280;66983;51.438;5.438;2023-04-01T01:45:01;99145.38;;;9.87;89.89
77793;BME280;66983;51.438;5.438;2023-04-01T01:47:29;99151.69;;;9.86;88.77
77793;BME280;66983;51.438;5.438;2023-04-01T01:49:56;99153.34;;;9.87;89.88
77793;BME280;66983;51.438;5.438;2023-04-01T01:52:24;99157.00;;;9.86;89.08
77793;BME280;66983;51.438;5.438;2023-04-01T01:54:54;99156.25;;;9.84;89.87
77793;BME280;66983;51.438;5.438;2023-04-01T01:57:30;99157.09;;;9.85;89.95
77793;BME280;66983;51.438;5.438;2023-04-01T02:00:04;99156.25;;;9.84;89.77
77793;BME280;66983;51.438;5.438;2023-04-01T02:02:44;99157.47;;;9.79;90.35
77793;BME280;66983;51.438;5.438;2023-04-01T02:05:16;99173.25;;;9.82;89.19
77793;BME280;66983;51.438;5.438;2023-04-01T02:07:49;99172.38;;;9.81;90.39
77793;BME280;66983;51.438;5.438;2023-04-01T02:10:22;99163.66;;;9.79;90.01
77793;BME280;66983;51.438;5.438;2023-04-01T02:12:53;99168.88;;;9.81;89.39
77793;BME280;66983;51.438;5.438;2023-04-01T02:15:27;99168.78;;;9.82;89.18
77793;BME280;66983;51.438;5.438;2023-04-01T02:17:57;99175.91;;;9.82;89.70
77793;BME280;66983;51.438;5.438;2023-04-01T02:20:24;99174.88;;;9.84;89.66
77793;BME280;66983;51.438;5.438;2023-04-01T02:22:54;99176.66;;;9.84;89.46
77793;BME280;66983;51.438;5.438;2023-04-01T02:25:33;99183.78;;;9.83;89.51
77793;BME280;66983;51.438;5.438;2023-04-01T02:28:01;99182.00;;;9.84;89.91
77793;BME280;66983;51.438;5.438;2023-04-01T02:30:30;99184.66;;;9.84;89.88
77793;BME280;66983;51.438;5.438;2023-04-01T02:32:58;99179.44;;;9.82;89.58
77793;BME280;66983;51.438;5.438;2023-04-01T02:35:25;99181.13;;;9.83;89.66
77793;BME280;66983;51.438;5.438;2023-04-01T02:37:53;99192.63;;;9.84;88.71
77793;BME280;66983;51.438;5.438;2023-04-01T02:40:20;99196.16;;;9.84;89.65
77793;BME280;66983;51.438;5.438;2023-04-01T02:42:46;99177.91;;;9.78;89.44
77793;BME280;66983;51.438;5.438;2023-04-01T02:45:12;99191.97;;;9.80;89.41
77793;BME280;66983;51.438;5.438;2023-04-01T02:47:38;99192.91;;;9.79;88.82
77793;BME280;66983;51.438;5.438;2023-04-01T02:50:04;99183.41;;;9.75;88.88
77793;BME280;66983;51.438;5.438;2023-04-01T02:52:30;99198.50;;;9.75;89.05
77793;BME280;66983;51.438;5.438;2023-04-01T02:54:59;99197.84;;;9.71;89.05
77793;BME280;66983;51.438;5.438;2023-04-01T02:57:25;99194.34;;;9.71;89.28
77793;BME280;66983;51.438;5.438;2023-04-01T02:59:51;99196.31;;;9.67;88.71
77793;BME280;66983;51.438;5.438;2023-04-01T03:02:17;99194.69;;;9.65;89.78
77793;BME280;66983;51.438;5.438;2023-04-01T03:04:42;99196.41;;;9.66;89.03
77793;BME280;66983;51.438;5.438;2023-04-01T03:07:09;99194.59;;;9.66;90.01
77793;BME280;66983;51.438;5.438;2023-04-01T03:09:38;99206.09;;;9.67;89.26
77793;BME280;66983;51.438;5.438;2023-04-01T03:12:04;99209.63;;;9.67;89.35
77793;BME280;66983;51.438;5.438;2023-04-01T03:14:35;99210.56;;;9.66;89.62
77793;BME280;66983;51.438;5.438;2023-04-01T03:17:01;99210.56;;;9.66;90.05
77793;BME280;66983;51.438;5.438;2023-04-01T03:19:26;99210.56;;;9.66;90.48
77793;BME280;66983;51.438;5.438;2023-04-01T03:21:52;99219.50;;;9.65;89.99
77793;BME280;66983;51.438;5.438;2023-04-01T03:24:18;99223.97;;;9.65;89.83
77793;BME280;66983;51.438;5.438;2023-04-01T03:26:43;99221.31;;;9.65;90.32
77793;BME280;66983;51.438;5.438;2023-04-01T03:29:09;99218.00;;;9.61;90.83
77793;BME280;66983;51.438;5.438;2023-04-01T03:31:35;99220.66;;;9.61;89.49
77793;BME280;66983;51.438;5.438;2023-04-01T03:34:00;99225.00;;;9.62;90.28
77793;BME280;66983;51.438;5.438;2023-04-01T03:36:26;99221.59;;;9.60;89.44
77793;BME280;66983;51.438;5.438;2023-04-01T03:38:52;99227.13;;;9.57;89.86
77793;BME280;66983;51.438;5.438;2023-04-01T03:41:24;99232.25;;;9.60;90.49
77793;BME280;66983;51.438;5.438;2023-04-01T03:43:51;99233.19;;;9.59;89.63
77793;BME280;66983;51.438;5.438;2023-04-01T03:46:18;99225.41;;;9.56;90.18
77793;BME280;66983;51.438;5.438;2023-04-01T03:48:44;99238.50;;;9.59;90.22
77793;BME280;66983;51.438;5.438;2023-04-01T03:51:10;99237.66;;;9.59;90.36
77793;BME280;66983;51.438;5.438;2023-04-01T03:53:35;99237.66;;;9.59;90.58
77793;BME280;66983;51.438;5.438;2023-04-01T03:56:05;99240.50;;;9.56;89.94
77793;BME280;66983;51.438;5.438;2023-04-01T03:58:32;99234.50;;;9.52;91.00
77793;BME280;66983;51.438;5.438;2023-04-01T04:00:59;99238.69;;;9.56;90.95
77793;BME280;66983;51.438;5.438;2023-04-01T04:03:25;99243.06;;;9.57;90.23
77793;BME280;66983;51.438;5.438;2023-04-01T04:05:51;99237.75;;;9.57;90.53
77793;BME280;66983;51.438;5.438;2023-04-01T04:08:17;99241.25;;;9.58;90.17
77793;BME280;66983;51.438;5.438;2023-04-01T04:10:44;99244.28;;;9.51;89.88
77793;BME280;66983;51.438;5.438;2023-04-01T04:13:10;99251.59;;;9.48;90.31
77793;BME280;66983;51.438;5.438;2023-04-01T04:15:41;99248.75;;;9.51;90.23
77793;BME280;66983;51.438;5.438;2023-04-01T04:18:07;99252.44;;;9.48;89.81
77793;BME280;66983;51.438;5.438;2023-04-01T04:20:32;99250.81;;;9.46;90.25
77793;BME280;66983;51.438;5.438;2023-04-01T04:23:00;99263.19;;;9.47;90.31
77793;BME280;66983;51.438;5.438;2023-04-01T04:25:26;99251.88;;;9.43;90.18
77793;BME280;66983;51.438;5.438;2023-04-01T04:27:51;99251.94;;;9.42;90.22
77793;BME280;66983;51.438;5.438;2023-04-01T04:30:17;99253.84;;;9.40;90.16
77793;BME280;66983;51.438;5.438;2023-04-01T04:32:42;99263.53;;;9.41;89.59
77793;BME280;66983;51.438;5.438;2023-04-01T04:35:09;99268.00;;;9.40;89.95
77793;BME280;66983;51.438;5.438;2023-04-01T04:37:35;99268.00;;;9.40;89.76
77793;BME280;66983;51.438;5.438;2023-04-01T04:40:01;99270.75;;;9.39;91.01
77793;BME280;66983;51.438;5.438;2023-04-01T04:42:28;99273.50;;;9.37;90.59
77793;BME280;66983;51.438;5.438;2023-04-01T04:44:59;99282.31;;;9.38;91.04
77793;BME280;66983;51.438;5.438;2023-04-01T04:47:25;99288.59;;;9.37;90.76
77793;BME280;66983;51.438;5.438;2023-04-01T04:49:50;99279.66;;;9.38;90.15
77793;BME280;66983;51.438;5.438;2023-04-01T04:52:17;99288.72;;;9.35;89.82
77793;BME280;66983;51.438;5.438;2023-04-01T04:54:43;99293.16;;;9.35;90.45
77793;BME280;66983;51.438;5.438;2023-04-01T04:57:08;99299.44;;;9.34;90.31
77793;BME280;66983;51.438;5.438;2023-04-01T04:59:41;99297.72;;;9.33;90.78
77793;BME280;66983;51.438;5.438;2023-04-01T05:02:11;99302.19;;;9.32;89.52
77793;BME280;66983;51.438;5.438;2023-04-01T05:04:37;99311.00;;;9.33;90.48
77793;BME280;66983;51.438;5.438;2023-04-01T05:07:04;99316.50;;;9.30;90.17
77793;BME280;66983;51.438;5.438;2023-04-01T05:09:30;99309.47;;;9.29;91.18
77793;BME280;66983;51.438;5.438;2023-04-01T05:11:57;99315.75;;;9.28;89.99
77793;BME280;66983;51.438;5.438;2023-04-01T05:14:24;99316.59;;;9.28;90.65
77793;BME280;66983;51.438;5.438;2023-04-01T05:16:56;99315.75;;;9.28;90.99
77793;BME280;66983;51.438;5.438;2023-04-01T05:19:22;99321.06;;;9.28;90.03
77793;BME280;66983;51.438;5.438;2023-04-01T05:21:47;99327.22;;;9.28;90.57
77793;BME280;66983;51.438;5.438;2023-04-01T05:24:15;99329.97;;;9.27;90.30
77793;BME280;66983;51.438;5.438;2023-04-01T05:26:41;99329.13;;;9.26;89.75
77793;BME280;66983;51.438;5.438;2023-04-01T05:29:06;99334.53;;;9.25;89.66
77793;BME280;66983;51.438;5.438;2023-04-01T05:31:32;99345.16;;;9.25;89.58
77793;BME280;66983;51.438;5.438;2023-04-01T05:33:58;99343.44;;;9.24;90.26
77793;BME280;66983;51.438;5.438;2023-04-01T05:36:23;99344.22;;;9.26;89.76
77793;BME280;66983;51.438;5.438;2023-04-01T05:38:50;99348.75;;;9.24;89.66
77793;BME280;66983;51.438;5.438;2023-04-01T05:41:17;99346.88;;;9.26;90.10
77793;BME280;66983;51.438;5.438;2023-04-01T05:43:44;99356.56;;;9.27;91.01
77793;BME280;66983;51.438;5.438;2023-04-01T05:46:29;99360.94;;;9.28;90.54
77793;BME280;66983;51.438;5.438;2023-04-01T05:49:02;99365.47;;;9.26;90.03
77793;BME280;66983;51.438;5.438;2023-04-01T05:51:27;99362.03;;;9.24;90.27
77793;BME280;66983;51.438;5.438;2023-04-01T05:53:53;99372.69;;;9.24;89.92
77793;BME280;66983;51.438;5.438;2023-04-01T05:56:18;99378.84;;;9.24;90.90
77793;BME280;66983;51.438;5.438;2023-04-01T05:58:51;99372.75;;;9.22;90.91
77793;BME280;66983;51.438;5.438;2023-04-01T06:01:18;99375.59;;;9.19;90.11
77793;BME280;66983;51.438;5.438;2023-04-01T06:03:44;99387.00;;;9.21;89.68
77793;BME280;66983;51.438;5.438;2023-04-01T06:06:24;99395.84;;;9.22;90.56
77793;BME280;66983;51.438;5.438;2023-04-01T06:08:52;99398.56;;;9.20;90.22
77793;BME280;66983;51.438;5.438;2023-04-01T06:24:42;99416.25;;;9.21;91.64
77793;BME280;66983;51.438;5.438;2023-04-01T06:43:37;99439.75;;;9.29;91.52
77793;BME280;66983;51.438;5.438;2023-04-01T06:49:56;99450.03;;;9.35;91.08
77793;BME280;66983;51.438;5.438;2023-04-01T06:56:15;99457.72;;;9.39;90.97
77793;BME280;66983;51.438;5.438;2023-04-01T06:59:11;99463.66;;;9.44;91.57
77793;BME280;66983;51.438;5.438;2023-04-01T07:01:45;99464.25;;;9.49;90.89
77793;BME280;66983;51.438;5.438;2023-04-01T07:04:20;99465.88;;;9.52;91.08
77793;BME280;66983;51.438;5.438;2023-04-01T07:06:54;99470.09;;;9.56;91.03
77793;BME280;66983;51.438;5.438;2023-04-01T07:09:49;99477.13;;;9.57;91.02
77793;BME280;66983;51.438;5.438;2023-04-01T07:12:44;99479.50;;;9.62;90.48
77793;BME280;66983;51.438;5.438;2023-04-01T07:15:43;99475.81;;;9.64;90.70
77793;BME280;66983;51.438;5.438;2023-04-01T07:18:19;99485.34;;;9.68;91.03
77793;BME280;66983;51.438;5.438;2023-04-01T07:20:48;99492.22;;;9.72;91.12
77793;BME280;66983;51.438;5.438;2023-04-01T07:23:22;99492.13;;;9.74;90.87
77793;BME280;66983;51.438;5.438;2023-04-01T07:26:04;99496.50;;;9.75;90.53
77793;BME280;66983;51.438;5.438;2023-04-01T07:28:32;99494.69;;;9.75;90.04
77793;BME280;66983;51.438;5.438;2023-04-01T07:31:22;99501.47;;;9.81;90.33
77793;BME280;66983;51.438;5.438;2023-04-01T07:34:19;99513.66;;;9.85;90.96
77793;BME280;66983;51.438;5.438;2023-04-01T07:37:11;99509.78;;;9.91;90.15
77793;BME280;66983;51.438;5.438;2023-04-01T07:48:23;99527.09;;;9.98;90.07
77793;BME280;66983;51.438;5.438;2023-04-01T07:51:21;99537.66;;;9.99;90.33
77793;BME280;66983;51.438;5.438;2023-04-01T08:03:25;99546.75;;;10.11;89.28
77793;BME280;66983;51.438;5.438;2023-04-01T08:06:02;99545.06;;;10.10;89.15
77793;BME280;66983;51.438;5.438;2023-04-01T08:08:43;99553.81;;;10.12;88.83
77793;BME280;66983;51.438;5.438;2023-04-01T08:15:31;99573.19;;;10.14;89.49
77793;BME280;66983;51.438;5.438;2023-04-01T08:18:38;99576.72;;;10.14;89.87
77793;BME280;66983;51.438;5.438;2023-04-01T08:21:21;99581.28;;;10.12;89.25
77793;BME280;66983;51.438;5.438;2023-04-01T08:23:52;99575.97;;;10.12;89.93
77793;BME280;66983;51.438;5.438;2023-04-01T08:26:43;99584.53;;;10.17;89.38
77793;BME280;66983;51.438;5.438;2023-04-01T08:29:19;99577.75;;;10.28;89.46
77793;BME280;66983;51.438;5.438;2023-04-01T08:31:51;99583.69;;;10.33;89.12
77793;BME280;66983;51.438;5.438;2023-04-01T08:34:25;99576.09;;;10.41;89.75
77793;BME280;66983;51.438;5.438;2023-04-01T08:37:00;99582.16;;;10.59;88.46
77793;BME280;66983;51.438;5.438;2023-04-01T08:39:34;99594.06;;;10.67;88.57
77793;BME280;66983;51.438;5.438;2023-04-01T08:56:40;99617.56;;;10.91;87.08
77793;BME280;66983;51.438;5.438;2023-04-01T09:05:18;99621.63;;;10.96;86.28
77793;BME280;66983;51.438;5.438;2023-04-01T09:25:32;99665.38;;;10.78;86.92
77793;BME280;66983;51.438;5.438;2023-04-01T09:28:33;99664.53;;;10.77;87.08
77793;BME280;66983;51.438;5.438;2023-04-01T09:30:57;99658.25;;;10.78;87.56
77793;BME280;66983;51.438;5.438;2023-04-01T09:33:52;99663.56;;;10.78;87.18
77793;BME280;66983;51.438;5.438;2023-04-01T09:36:53;99669.94;;;10.76;87.49
77793;BME280;66983;51.438;5.438;2023-04-01T09:45:28;99675.69;;;10.84;88.13
77793;BME280;66983;51.438;5.438;2023-04-01T09:48:02;99686.00;;;10.90;87.79
77793;BME280;66983;51.438;5.438;2023-04-01T10:02:29;99691.69;;;10.84;87.36
77793;BME280;66983;51.438;5.438;2023-04-01T10:08:33;99703.47;;;10.80;86.17
77793;BME280;66983;51.438;5.438;2023-04-01T10:36:43;99724.38;;;10.72;85.74
77793;BME280;66983;51.438;5.438;2023-04-01T10:40:21;99728.91;;;10.70;85.96
77793;BME280;66983;51.438;5.438;2023-04-01T10:48:48;99738.31;;;10.61;86.21
77793;BME280;66983;51.438;5.438;2023-04-01T11:04:26;99748.72;;;10.50;86.39
77793;BME280;66983;51.438;5.438;2023-04-01T11:19:17;99757.91;;;10.44;86.52
77793;BME280;66983;51.438;5.438;2023-04-01T11:31:32;99770.97;;;10.49;87.15
77793;BME280;66983;51.438;5.438;2023-04-01T11:43:01;99790.75;;;10.61;87.91
77793;BME280;66983;51.438;5.438;2023-04-01T11:48:59;99802.28;;;10.61;87.59
77793;BME280;66983;51.438;5.438;2023-04-01T12:02:34;99809.16;;;10.65;87.63
77793;BME280;66983;51.438;5.438;2023-04-01T12:05:40;99818.94;;;10.65;87.80
77793;BME280;66983;51.438;5.438;2023-04-01T12:08:20;99817.41;;;10.61;87.54
77793;BME280;66983;51.438;5.438;2023-04-01T12:11:21;99817.97;;;10.66;88.76
77793;BME280;66983;51.438;5.438;2023-04-01T12:14:36;99826.75;;;10.68;88.79
77793;BME280;66983;51.438;5.438;2023-04-01T12:22:58;99833.22;;;10.64;88.40
77793;BME280;66983;51.438;5.438;2023-04-01T12:28:19;99838.78;;;10.59;88.59
77793;BME280;66983;51.438;5.438;2023-04-01T12:30:58;99842.16;;;10.63;88.86
77793;BME280;66983;51.438;5.438;2023-04-01T12:39:11;99854.34;;;10.67;89.37
77793;BME280;66983;51.438;5.438;2023-04-01T12:55:38;99864.34;;;10.79;88.41
77793;BME280;66983;51.438;5.438;2023-04-01T13:09:45;99881.59;;;10.72;87.97
77793;BME280;66983;51.438;5.438;2023-04-01T13:15:33;99884.28;;;10.72;88.31
77793;BME280;66983;51.438;5.438;2023-04-01T13:18:32;99890.47;;;10.72;88.10
77793;BME280;66983;51.438;5.438;2023-04-01T13:29:57;99893.66;;;10.79;87.97
77793;BME280;66983;51.438;5.438;2023-04-01T13:32:51;99908.78;;;10.78;87.70
77793;BME280;66983;51.438;5.438;2023-04-01T13:41:13;99914.56;;;10.86;89.02
77793;BME280;66983;51.438;5.438;2023-04-01T13:43:50;99917.31;;;10.85;87.71
77793;BME280;66983;51.438;5.438;2023-04-01T13:46:33;99920.94;;;10.84;88.87
77793;BME280;66983;51.438;5.438;2023-04-01T13:52:02;99921.09;;;10.81;88.50
77793;BME280;66983;51.438;5.438;2023-04-01T14:00:11;99927.53;;;10.77;88.21
77793;BME280;66983;51.438;5.438;2023-04-01T14:02:49;99924.84;;;10.77;88.18
77793;BME280;66983;51.438;5.438;2023-04-01T14:08:20;99933.03;;;10.74;89.18
77793;BME280;66983;51.438;5.438;2023-04-01T14:16:55;99943.06;;;10.69;89.15
77793;BME280;66983;51.438;5.438;2023-04-01T14:22:35;99951.84;;;10.71;89.14
77793;BME280;66983;51.438;5.438;2023-04-01T14:50:15;99982.22;;;10.51;89.41
77793;BME280;66983;51.438;5.438;2023-04-01T15:00:44;99991.94;;;10.52;89.93
77793;BME280;66983;51.438;5.438;2023-04-01T15:03:32;99990.38;;;10.48;89.50
77793;BME280;66983;51.438;5.438;2023-04-01T15:09:34;100003.69;;;10.48;89.47
77793;BME280;66983;51.438;5.438;2023-04-01T15:12:26;100014.25;;;10.49;90.06
77793;BME280;66983;51.438;5.438;2023-04-01T15:15:20;100012.53;;;10.48;89.50
77793;BME280;66983;51.438;5.438;2023-04-01T15:23:49;100022.56;;;10.43;89.70
77793;BME280;66983;51.438;5.438;2023-04-01T15:26:36;100028.75;;;10.44;89.47
77793;BME280;66983;51.438;5.438;2023-04-01T15:29:36;100026.25;;;10.41;89.54
77793;BME280;66983;51.438;5.438;2023-04-01T15:40:29;100043.72;;;10.46;89.40
77793;BME280;66983;51.438;5.438;2023-04-01T15:43:18;100045.59;;;10.44;89.73
77793;BME280;66983;51.438;5.438;2023-04-01T15:57:08;100049.28;;;10.42;89.26
77793;BME280;66983;51.438;5.438;2023-04-01T16:03:09;100066.06;;;10.44;88.87
77793;BME280;66983;51.438;5.438;2023-04-01T16:06:17;100061.59;;;10.44;88.68
77793;BME280;66983;51.438;5.438;2023-04-01T16:15:03;100066.53;;;10.35;88.70
77793;BME280;66983;51.438;5.438;2023-04-01T16:18:09;100077.41;;;10.30;88.94
77793;BME280;66983;51.438;5.438;2023-04-01T16:21:01;100075.69;;;10.29;89.54
77793;BME280;66983;51.438;5.438;2023-04-01T16:23:49;100079.38;;;10.27;89.24
77793;BME280;66983;51.438;5.438;2023-04-01T16:31:53;100087.28;;;10.28;89.46
77793;BME280;66983;51.438;5.438;2023-04-01T16:34:37;100083.69;;;10.29;89.26
77793;BME280;66983;51.438;5.438;2023-04-01T16:37:11;100084.63;;;10.28;89.18
77793;BME280;66983;51.438;5.438;2023-04-01T16:47:47;100097.28;;;10.23;89.57
77793;BME280;66983;51.438;5.438;2023-04-01T16:50:24;100097.28;;;10.23;90.28
77793;BME280;66983;51.438;5.438;2023-04-01T16:58:27;100093.97;;;10.18;90.27
77793;BME280;66983;51.438;5.438;2023-04-01T17:01:17;100099.28;;;10.18;89.66
77793;BME280;66983;51.438;5.438;2023-04-01T17:03:53;100122.28;;;10.20;90.10
77793;BME280;66983;51.438;5.438;2023-04-01T17:06:35;100123.00;;;10.24;90.11
77793;BME280;66983;51.438;5.438;2023-04-01T17:15:20;100134.59;;;10.23;90.15
77793;BME280;66983;51.438;5.438;2023-04-01T17:23:38;100164.88;;;10.20;90.64
77793;BME280;66983;51.438;5.438;2023-04-01T17:29:19;100163.16;;;10.19;90.82
77793;BME280;66983;51.438;5.438;2023-04-01T17:32:16;100170.13;;;10.22;90.79
77793;BME280;66983;51.438;5.438;2023-04-01T17:35:14;100173.44;;;10.27;90.47
77793;BME280;66983;51.438;5.438;2023-04-01T17:38:01;100171.44;;;10.32;90.11
77793;BME280;66983;51.438;5.438;2023-04-01T17:52:12;100200.97;;;10.45;90.75
77793;BME280;66983;51.438;5.438;2023-04-01T17:54:53;100206.16;;;10.48;90.62
77793;BME280;66983;51.438;5.438;2023-04-01T18:03:14;100219.84;;;10.59;90.62
77793;BME280;66983;51.438;5.438;2023-04-01T18:11:44;100240.00;;;10.65;89.93
77793;BME280;66983;51.438;5.438;2023-04-01T18:23:30;100271.13;;;10.64;89.53
77793;BME280;66983;51.438;5.438;2023-04-01T18:26:18;100274.66;;;10.65;89.95
77793;BME280;66983;51.438;5.438;2023-04-01T18:28:54;100282.66;;;10.65;89.70
77793;BME280;66983;51.438;5.438;2023-04-01T18:31:25;100282.66;;;10.65;89.66
77793;BME280;66983;51.438;5.438;2023-04-01T18:34:06;100292.44;;;10.64;89.58
77793;BME280;66983;51.438;5.438;2023-04-01T18:36:41;100295.00;;;10.66;89.51
77793;BME280;66983;51.438;5.438;2023-04-01T18:39:16;100303.09;;;10.64;89.63
77793;BME280;66983;51.438;5.438;2023-04-01T18:44:34;100316.50;;;10.63;89.54
77793;BME280;66983;51.438;5.438;2023-04-01T18:47:18;100323.63;;;10.62;89.09
77793;BME280;66983;51.438;5.438;2023-04-01T18:56:15;100337.97;;;10.60;89.08
77793;BME280;66983;51.438;5.438;2023-04-01T19:04:00;100363.44;;;10.46;88.94
77793;BME280;66983;51.438;5.438;2023-04-01T19:06:30;100367.97;;;10.44;88.67
77793;BME280;66983;51.438;5.438;2023-04-01T19:09:20;100373.44;;;10.41;88.87
77793;BME280;66983;51.438;5.438;2023-04-01T19:12:03;100385.88;;;10.41;88.57
77793;BME280;66983;51.438;5.438;2023-04-01T19:20:26;100409.22;;;10.36;88.45
77793;BME280;66983;51.438;5.438;2023-04-01T19:26:11;100410.22;;;10.33;89.01
77793;BME280;66983;51.438;5.438;2023-04-01T19:34:49;100426.47;;;10.27;88.61
77793;BME280;66983;51.438;5.438;2023-04-01T19:42:28;100440.06;;;10.21;88.11
77793;BME280;66983;51.438;5.438;2023-04-01T19:50:38;100452.84;;;10.13;87.67
77793;BME280;66983;51.438;5.438;2023-04-01T19:53:18;100463.53;;;10.11;88.64
77793;BME280;66983;51.438;5.438;2023-04-01T19:56:15;100469.63;;;10.13;88.22
77793;BME280;66983;51.438;5.438;2023-04-01T19:58:56;100479.53;;;10.11;89.11
77793;BME280;66983;51.438;5.438;2023-04-01T20:01:35;100490.31;;;10.08;88.47
77793;BME280;66983;51.438;5.438;2023-04-01T20:04:24;100488.81;;;10.01;88.33
77793;BME280;66983;51.438;5.438;2023-04-01T20:07:04;100490.88;;;9.95;87.96
77793;BME280;66983;51.438;5.438;2023-04-01T20:12:45;100515.22;;;9.85;88.02
77793;BME280;66983;51.438;5.438;2023-04-01T20:15:31;100529.59;;;9.81;87.11
77793;BME280;66983;51.438;5.438;2023-04-01T20:18:04;100527.72;;;9.83;88.35
77793;BME280;66983;51.438;5.438;2023-04-01T20:20:32;100534.91;;;9.81;86.93
77793;BME280;66983;51.438;5.438;2023-04-01T20:25:47;100543.13;;;9.75;86.20
77793;BME280;66983;51.438;5.438;2023-04-01T20:36:36;100557.56;;;9.70;88.20
77793;BME280;66983;51.438;5.438;2023-04-01T20:42:27;100576.56;;;9.61;86.68
77793;BME280;66983;51.438;5.438;2023-04-01T20:50:39;100591.94;;;9.52;86.91
77793;BME280;66983;51.438;5.438;2023-04-01T20:53:29;100602.81;;;9.46;87.31
77793;BME280;66983;51.438;5.438;2023-04-01T21:01:41;100611.88;;;9.41;88.04
77793;BME280;66983;51.438;5.438;2023-04-01T21:04:24;100618.13;;;9.40;87.28
77793;BME280;66983;51.438;5.438;2023-04-01T21:09:53;100631.44;;;9.40;88.12
77793;BME280;66983;51.438;5.438;2023-04-01T21:12:51;100633.41;;;9.35;87.66
77793;BME280;66983;51.438;5.438;2023-04-01T21:18:28;100637.00;;;9.34;87.64
77793;BME280;66983;51.438;5.438;2023-04-01T21:21:28;100653.00;;;9.32;88.43
77793;BME280;66983;51.438;5.438;2023-04-01T21:24:35;100657.75;;;9.24;88.60
77793;BME280;66983;51.438;5.438;2023-04-01T21:27:39;100663.13;;;9.23;88.52
77793;BME280;66983;51.438;5.438;2023-04-01T21:33:34;100673.97;;;9.16;87.25
77793;BME280;66983;51.438;5.438;2023-04-01T21:54:37;100721.66;;;8.96;87.71
77793;BME280;66983;51.438;5.438;2023-04-01T22:05:57;100754.16;;;8.78;87.16
77793;BME280;66983;51.438;5.438;2023-04-01T22:08:56;100753.34;;;8.76;87.16
77793;BME280;66983;51.438;5.438;2023-04-01T22:11:44;100768.47;;;8.74;86.45
77793;BME280;66983;51.438;5.438;2023-04-01T22:16:58;100763.44;;;8.65;86.71
77793;BME280;66983;51.438;5.438;2023-04-01T22:22:31;100778.78;;;8.57;87.39
77793;BME280;66983;51.438;5.438;2023-04-01T22:25:14;100785.06;;;8.54;87.77
77793;BME280;66983;51.438;5.438;2023-04-01T22:32:58;100794.94;;;8.49;87.94
77793;BME280;66983;51.438;5.438;2023-04-01T22:43:43;100814.69;;;8.40;87.22
77793;BME280;66983;51.438;5.438;2023-04-01T22:49:01;100824.78;;;8.28;86.98
77793;BME280;66983;51.438;5.438;2023-04-01T22:51:45;100837.31;;;8.23;88.54
77793;BME280;66983;51.438;5.438;2023-04-01T22:57:00;100831.16;;;8.22;87.20
77793;BME280;66983;51.438;5.438;2023-04-01T22:59:44;100840.94;;;8.20;87.77
77793;BME280;66983;51.438;5.438;2023-04-01T23:04:55;100852.63;;;8.13;86.53
77793;BME280;66983;51.438;5.438;2023-04-01T23:10:15;100856.28;;;8.09;87.30
77793;BME280;66983;51.438;5.438;2023-04-01T23:12:45;100859.97;;;8.05;87.37
77793;BME280;66983;51.438;5.438;2023-04-01T23:15:13;100872.47;;;8.01;86.35
77793;BME280;66983;51.438;5.438;2023-04-01T23:21:23;100881.25;;;8.03;86.18
77793;BME280;66983;51.438;5.438;2023-04-01T23:26:43;100884.03;;;7.99;85.10
77793;BME280;66983;51.438;5.438;2023-04-01T23:29:16;100890.25;;;7.98;87.08
77793;BME280;66983;51.438;5.438;2023-04-01T23:31:45;100888.44;;;8.00;86.61